Thursday, April 26, 2018, 5:01 PM EDT
Back to Local

KESN, Easton / Newman Field

Location: Easton, MD, United States Lat: 38.8
Local Time: 5:01 PM EDT (21:01 GMT) Lon: -76.067
Time Zone: US/Eastern Elev: 72 ft

Show me the last for .
Show Decoded

2018-04-26 15:50 METAR KESN 261950Z 26007KT 10SM FEW100 20/04 A2988 =
2018-04-26 14:50 METAR KESN 261850Z COR 33006KT 10SM FEW100 20/05 A2989 =
2018-04-26 13:50 METAR KESN 261750Z 30009KT 10SM FEW100 19/05 A2989 =
2018-04-26 12:50 METAR KESN 261650Z 32009G14KT 10SM FEW100 17/05 A2990 =
2018-04-26 12:15 METAR KESN 261615Z 29008KT 10SM BKN100 17/05 A2990 =
2018-04-26 11:50 METAR KESN 261550Z 30008KT 10SM BKN100 16/05 A2990 =
2018-04-26 10:50 METAR KESN 261450Z 31009G15KT 10SM BKN100 15/05 A2990 =
2018-04-26 09:50 METAR KESN 261350Z 32012KT 10SM BKN250 14/04 A2990 =
2018-04-26 08:50 METAR KESN 261250Z 31014G19KT 10SM SCT250 13/04 A2989 =
2018-04-26 07:50 METAR KESN 261150Z 31009KT 10SM SCT250 11/05 A2987 =
2018-04-26 06:50 METAR KESN 261050Z 30009G14KT 10SM BKN200 11/04 A2985 =
2018-04-26 05:50 METAR KESN 260950Z 32012G18KT 7SM SCT250 10/04 A2983 =
2018-04-25 21:50 METAR KESN 260150Z 33007KT 7SM SCT022 BKN040 17/15 A2975 =
2018-04-25 20:50 METAR KESN 260050Z 33004KT 4SM BR SCT005 OVC010 17/16 A2973 =
2018-04-25 19:50 METAR KESN 252350Z 33008KT 10SM RA BKN008 OVC017 17/16 A2971 =
2018-04-25 18:50 METAR KESN 252250Z 33008KT 10SM SCT019 BKN030 18/15 A2969 =
2018-04-25 17:50 METAR KESN 252150Z 33009KT 10SM BKN014 19/15 A2969 =

Support USWX by starting your Amazon purchase here.